Time;durP1;ratioP1;P1;durP2;ratioP2;P2;SDS_P1;SDS_P2;PMS_P1;PMS_P2;Temp;Humidity;BMP_temperature;BMP_pressure;BME280_temperature;BME280_humidity;BME280_pressure;Samples;Min_cycle;Max_cycle;Signal;HPM_P1;HPM_P2
2023/07/21 00:00:15;;;;;;;3.78;3.00;;;;;;;18.47;100.00;95619.44;5016821;28;20119;-67
2023/07/21 00:02:46;;;;;;;3.85;3.22;;;;;;;18.39;100.00;95618.75;5019074;28;20025;-67
2023/07/21 00:05:16;;;;;;;3.08;2.88;;;;;;;18.32;100.00;95616.84;5021538;28;20026;-67
2023/07/21 00:07:42;;;;;;;3.90;2.72;;;;;;;18.27;100.00;95621.94;5018788;28;20030;-67
2023/07/21 00:10:08;;;;;;;4.10;3.00;;;;;;;18.23;100.00;95623.31;5024413;28;20509;-67
2023/07/21 00:12:35;;;;;;;3.40;2.63;;;;;;;18.22;100.00;95627.00;5021060;28;20025;-68
2023/07/21 00:15:02;;;;;;;2.78;2.58;;;;;;;18.20;100.00;95623.72;5020807;28;20148;-67
2023/07/21 00:17:30;;;;;;;2.97;2.78;;;;;;;18.16;100.00;95620.63;5019275;28;20071;-67
2023/07/21 00:19:58;;;;;;;2.80;2.60;;;;;;;18.12;100.00;95623.84;5017815;28;20041;-67
2023/07/21 00:22:25;;;;;;;3.30;2.50;;;;;;;18.07;100.00;95615.63;5020254;28;20046;-67
2023/07/21 00:24:50;;;;;;;2.75;2.55;;;;;;;18.03;100.00;95608.00;5020304;28;20100;-67
2023/07/21 00:27:17;;;;;;;7.13;2.65;;;;;;;18.03;100.00;95617.81;5020280;28;20724;-67
2023/07/21 00:29:43;;;;;;;2.53;2.33;;;;;;;18.02;100.00;95611.69;5020719;28;20018;-68
2023/07/21 00:32:08;;;;;;;3.05;2.50;;;;;;;18.01;100.00;95612.69;5016047;28;20427;-67
2023/07/21 00:34:34;;;;;;;3.30;3.08;;;;;;;18.01;100.00;95611.84;5018586;28;20443;-67
2023/07/21 00:36:59;;;;;;;3.17;2.70;;;;;;;17.99;100.00;95614.69;5019448;28;20025;-67
2023/07/21 00:39:25;;;;;;;2.95;2.75;;;;;;;17.97;100.00;95614.03;5019464;28;20061;-67
2023/07/21 00:41:50;;;;;;;3.45;3.15;;;;;;;17.92;100.00;95611.13;5017287;28;20036;-68
2023/07/21 00:44:15;;;;;;;3.45;3.15;;;;;;;17.88;100.00;95620.53;5018268;28;20021;-67
2023/07/21 00:46:41;;;;;;;3.78;3.10;;;;;;;17.81;100.00;95612.47;5020882;28;20045;-67
2023/07/21 00:49:08;;;;;;;4.05;2.90;;;;;;;17.78;100.00;95612.00;5046600;28;20022;-68
2023/07/21 00:51:33;;;;;;;3.50;3.20;;;;;;;17.80;100.00;95607.34;5020495;28;20018;-67
2023/07/21 00:54:00;;;;;;;6.00;3.28;;;;;;;17.76;100.00;95601.56;5015136;28;20028;-68
2023/07/21 00:56:26;;;;;;;3.28;2.80;;;;;;;17.73;100.00;95599.28;5014859;28;20025;-68
2023/07/21 00:58:52;;;;;;;3.88;2.65;;;;;;;17.68;100.00;95604.31;5017258;28;20022;-67
2023/07/21 01:01:17;;;;;;;3.03;2.70;;;;;;;17.65;100.00;95597.56;5017544;28;20021;-68
2023/07/21 01:03:43;;;;;;;4.10;3.00;;;;;;;17.60;100.00;95587.47;5018309;28;20018;-67
2023/07/21 01:06:09;;;;;;;2.63;2.42;;;;;;;17.62;100.00;95584.63;5018474;28;20033;-67
2023/07/21 01:08:35;;;;;;;2.60;2.50;;;;;;;17.64;100.00;95579.94;5013453;28;20441;-67
2023/07/21 01:11:01;;;;;;;2.60;2.50;;;;;;;17.61;100.00;95580.31;5015270;28;20993;-67
2023/07/21 01:13:27;;;;;;;2.92;2.58;;;;;;;17.60;100.00;95591.97;5017613;28;20018;-67
2023/07/21 01:15:55;;;;;;;2.90;2.70;;;;;;;17.58;100.00;95586.03;5014577;28;20017;-67
2023/07/21 01:18:21;;;;;;;3.03;2.83;;;;;;;17.55;100.00;95581.06;5018979;28;20057;-67
2023/07/21 01:20:48;;;;;;;3.08;2.53;;;;;;;17.52;100.00;95581.44;5017343;28;20014;-68
2023/07/21 01:23:29;;;;;;;2.97;2.70;;;;;;;17.49;100.00;95572.00;5015986;28;20024;-67
2023/07/21 01:25:57;;;;;;;3.13;2.90;;;;;;;17.47;100.00;95574.84;5014849;28;20129;-67
2023/07/21 01:28:24;;;;;;;3.03;2.70;;;;;;;17.43;100.00;95578.91;5017144;28;20596;-67
2023/07/21 01:30:53;;;;;;;3.25;3.05;;;;;;;17.38;100.00;95569.81;5018045;28;20026;-67
2023/07/21 01:33:20;;;;;;;3.58;2.90;;;;;;;17.28;100.00;95575.44;5019867;28;20029;-67
2023/07/21 01:35:50;;;;;;;2.45;2.25;;;;;;;17.27;100.00;95584.44;5012137;28;20593;-68
2023/07/21 01:38:18;;;;;;;2.65;2.45;;;;;;;17.23;100.00;95578.66;5018115;28;20024;-67
2023/07/21 01:40:44;;;;;;;2.67;2.47;;;;;;;17.22;100.00;95574.34;5019797;28;20049;-68
2023/07/21 01:43:11;;;;;;;3.40;3.10;;;;;;;17.20;100.00;95587.00;5016396;28;20075;-67
2023/07/21 01:45:38;;;;;;;2.92;2.70;;;;;;;17.16;100.00;95578.59;5017683;28;20032;-68
2023/07/21 01:48:04;;;;;;;3.58;2.50;;;;;;;17.11;100.00;95574.84;5018716;28;20383;-68
2023/07/21 01:50:30;;;;;;;6.50;2.90;;;;;;;17.10;100.00;95576.66;5019915;28;20025;-67
2023/07/21 01:53:00;;;;;;;3.50;2.75;;;;;;;17.06;100.00;95577.25;5019463;28;20719;-67
2023/07/21 01:55:29;;;;;;;3.72;2.65;;;;;;;17.05;100.00;95584.38;5022851;28;20026;-68
2023/07/21 01:58:00;;;;;;;3.83;2.90;;;;;;;17.00;100.00;95584.94;5021906;28;20017;-68
2023/07/21 02:00:32;;;;;;;3.78;2.80;;;;;;;16.96;100.00;95582.81;5011293;28;20018;-68
2023/07/21 02:03:00;;;;;;;4.25;2.72;;;;;;;16.93;100.00;95584.00;5020252;28;20014;-68
2023/07/21 02:05:26;;;;;;;3.67;2.72;;;;;;;16.90;100.00;95582.50;5015591;28;20026;-68
2023/07/21 02:07:51;;;;;;;3.80;3.00;;;;;;;16.88;100.00;95575.75;5041847;28;20045;-68
2023/07/21 02:10:17;;;;;;;3.42;3.17;;;;;;;16.83;100.00;95573.63;5016197;28;20056;-67
2023/07/21 02:12:43;;;;;;;3.25;2.83;;;;;;;16.82;100.00;95571.19;5020107;28;20017;-68
2023/07/21 02:15:09;;;;;;;3.88;2.90;;;;;;;16.81;100.00;95566.88;5013761;28;20034;-68
2023/07/21 02:17:38;;;;;;;3.30;3.08;;;;;;;16.79;100.00;95561.72;5014929;28;20394;-68
2023/07/21 02:20:09;;;;;;;2.88;2.67;;;;;;;16.80;100.00;95559.88;5016731;28;20049;-67
2023/07/21 02:22:39;;;;;;;3.38;2.92;;;;;;;16.82;100.00;95560.53;5016373;28;20022;-68
2023/07/21 02:25:06;;;;;;;3.55;3.25;;;;;;;16.83;100.00;95557.69;5018274;28;20026;-67
2023/07/21 02:27:33;;;;;;;3.00;2.70;;;;;;;16.84;100.00;95556.69;5015263;28;20062;-67
2023/07/21 02:30:03;;;;;;;3.35;2.90;;;;;;;16.89;100.00;95556.94;5017903;28;20033;-67
2023/07/21 02:32:28;;;;;;;4.05;2.85;;;;;;;16.92;100.00;95552.28;5018641;28;20033;-67
2023/07/21 02:34:55;;;;;;;3.33;3.03;;;;;;;16.92;100.00;95555.75;5017391;28;20049;-67
2023/07/21 02:37:20;;;;;;;5.63;2.85;;;;;;;16.90;100.00;95566.56;5017443;28;20022;-67
2023/07/21 02:39:46;;;;;;;3.13;2.83;;;;;;;16.93;100.00;95556.59;5018645;28;20032;-67
2023/07/21 02:42:11;;;;;;;5.05;2.78;;;;;;;16.93;100.00;95554.75;5019959;28;20117;-67
2023/07/21 02:44:36;;;;;;;3.92;3.22;;;;;;;16.92;100.00;95554.94;5019821;28;20445;-67
2023/07/21 02:47:02;;;;;;;2.97;2.78;;;;;;;16.90;100.00;95549.81;5023948;28;20549;-67
2023/07/21 02:49:29;;;;;;;3.00;2.80;;;;;;;16.86;100.00;95552.00;5020986;28;20026;-68
2023/07/21 02:51:55;;;;;;;2.90;2.70;;;;;;;16.82;100.00;95547.25;5021420;28;20036;-67
2023/07/21 02:54:20;;;;;;;4.15;3.80;;;;;;;16.83;100.00;95539.06;5020791;28;20030;-67
2023/07/21 02:56:46;;;;;;;3.50;2.90;;;;;;;16.84;100.00;95538.06;5018963;28;20026;-67
2023/07/21 02:59:11;;;;;;;2.92;2.72;;;;;;;16.85;100.00;95538.91;5022905;28;20087;-67
2023/07/21 03:01:38;;;;;;;3.30;3.00;;;;;;;16.82;100.00;95542.75;5020987;28;20027;-67
2023/07/21 03:04:04;;;;;;;4.57;2.92;;;;;;;16.84;100.00;95538.06;5023924;28;20045;-67
2023/07/21 03:06:30;;;;;;;4.35;3.00;;;;;;;16.85;100.00;95536.25;5023801;28;20521;-67
2023/07/21 03:08:56;;;;;;;3.20;3.00;;;;;;;16.89;100.00;95543.66;5025252;28;20443;-67
2023/07/21 03:11:22;;;;;;;3.38;3.00;;;;;;;16.89;100.00;95537.53;5021158;28;20045;-67
2023/07/21 03:13:47;;;;;;;2.70;2.55;;;;;;;16.91;100.00;95538.16;5017663;28;20026;-67
2023/07/21 03:16:13;;;;;;;4.38;2.90;;;;;;;16.92;100.00;95539.00;5021179;28;20028;-67
2023/07/21 03:18:39;;;;;;;3.30;3.10;;;;;;;16.94;100.00;95536.97;5020654;28;20041;-67
2023/07/21 03:21:04;;;;;;;3.00;2.80;;;;;;;16.92;100.00;95544.31;5022131;28;20060;-67
2023/07/21 03:23:30;;;;;;;3.00;2.80;;;;;;;16.90;100.00;95545.28;5018635;28;20029;-67
2023/07/21 03:25:55;;;;;;;2.95;2.75;;;;;;;16.92;100.00;95545.13;5017887;28;21214;-68
2023/07/21 03:28:25;;;;;;;3.03;2.85;;;;;;;16.94;100.00;95542.28;5020879;28;20056;-67
2023/07/21 03:30:58;;;;;;;3.60;2.90;;;;;;;16.96;100.00;95540.25;5018800;28;20451;-67
2023/07/21 03:33:23;;;;;;;2.88;2.70;;;;;;;16.99;100.00;95539.91;5022584;28;20029;-67
2023/07/21 03:36:02;;;;;;;3.63;3.08;;;;;;;17.06;100.00;95534.69;5020090;28;20029;-67
2023/07/21 03:38:31;;;;;;;3.15;2.85;;;;;;;17.03;100.00;95536.72;5018408;28;20547;-67
2023/07/21 03:41:07;;;;;;;3.20;2.90;;;;;;;17.07;100.00;95531.00;5018432;28;20021;-67
2023/07/21 03:43:33;;;;;;;4.53;3.35;;;;;;;17.03;100.00;95539.38;5017355;28;20022;-67
2023/07/21 03:46:00;;;;;;;2.95;2.72;;;;;;;17.01;100.00;95544.03;5020292;28;20041;-67
2023/07/21 03:48:26;;;;;;;3.40;3.10;;;;;;;16.98;100.00;95552.38;5021646;28;21661;-67
2023/07/21 03:50:59;;;;;;;4.43;3.00;;;;;;;17.04;100.00;95543.69;5025113;28;20026;-68
2023/07/21 03:53:28;;;;;;;4.15;3.35;;;;;;;17.11;100.00;95543.72;5021644;28;20033;-68
2023/07/21 03:55:54;;;;;;;5.22;3.15;;;;;;;17.08;100.00;95544.13;5020912;28;20079;-67
2023/07/21 03:58:20;;;;;;;4.32;3.08;;;;;;;17.07;100.00;95537.16;5023616;28;20041;-67
2023/07/21 04:00:45;;;;;;;3.67;3.28;;;;;;;17.08;100.00;95540.66;5018517;28;20032;-67
2023/07/21 04:03:11;;;;;;;3.78;3.47;;;;;;;17.04;100.00;95538.34;5026380;28;20521;-67
2023/07/21 04:05:37;;;;;;;6.18;3.22;;;;;;;17.04;100.00;95540.19;5021311;28;20432;-67
2023/07/21 04:08:03;;;;;;;4.50;3.08;;;;;;;17.07;100.00;95546.97;5014933;28;20034;-67
2023/07/21 04:10:29;;;;;;;3.97;3.35;;;;;;;17.08;100.00;95551.28;5024149;28;20026;-67
2023/07/21 04:12:56;;;;;;;3.55;3.22;;;;;;;17.02;100.00;95551.03;5021731;28;20624;-67
2023/07/21 04:15:25;;;;;;;4.32;3.15;;;;;;;17.04;100.00;95545.50;5019511;28;20033;-67
2023/07/21 04:17:54;;;;;;;3.50;3.30;;;;;;;17.06;100.00;95550.66;5021371;28;20029;-67
2023/07/21 04:20:22;;;;;;;3.70;3.33;;;;;;;17.03;100.00;95554.50;5022063;28;20235;-67
2023/07/21 04:22:47;;;;;;;5.10;3.30;;;;;;;17.09;100.00;95550.28;5020552;28;20026;-67
2023/07/21 04:25:15;;;;;;;5.35;3.67;;;;;;;17.06;100.00;95553.31;5019472;28;20030;-67
2023/07/21 04:27:41;;;;;;;4.00;3.60;;;;;;;17.00;100.00;95552.19;5017962;28;20046;-67
2023/07/21 04:30:07;;;;;;;5.75;3.33;;;;;;;17.01;100.00;95544.03;5018415;28;20411;-67
2023/07/21 04:32:33;;;;;;;4.53;3.28;;;;;;;17.00;100.00;95549.53;5018293;28;20089;-67
2023/07/21 04:34:59;;;;;;;5.20;3.65;;;;;;;16.99;100.00;95571.81;5016276;28;20518;-67
2023/07/21 04:37:25;;;;;;;3.70;3.38;;;;;;;16.95;100.00;95567.88;5022179;28;20597;-67
2023/07/21 04:39:51;;;;;;;3.88;3.47;;;;;;;16.88;100.00;95565.91;5023979;28;20498;-67
2023/07/21 04:42:17;;;;;;;3.75;3.47;;;;;;;16.87;100.00;95574.91;5019512;28;20195;-68
2023/07/21 04:44:44;;;;;;;3.70;3.35;;;;;;;16.84;100.00;95553.22;5020088;28;20017;-67
2023/07/21 04:47:10;;;;;;;5.95;4.18;;;;;;;16.89;100.00;95540.19;5017884;28;20406;-68
2023/07/21 04:49:35;;;;;;;4.68;3.95;;;;;;;16.88;100.00;95534.03;5021123;28;20072;-67
2023/07/21 04:52:02;;;;;;;4.18;3.30;;;;;;;16.87;100.00;95526.25;5021126;28;20028;-67
2023/07/21 04:54:28;;;;;;;4.70;3.90;;;;;;;16.95;100.00;95528.78;5019351;28;20029;-67
2023/07/21 04:56:53;;;;;;;4.00;3.63;;;;;;;17.02;100.00;95528.91;5020008;28;20087;-67
2023/07/21 04:59:19;;;;;;;5.88;3.75;;;;;;;17.04;100.00;95532.19;5024082;28;20041;-68
2023/07/21 05:01:48;;;;;;;6.80;4.35;;;;;;;16.98;100.00;95532.91;5017508;28;20550;-67
2023/07/21 05:04:19;;;;;;;5.47;4.00;;;;;;;17.06;100.00;95532.84;5020565;28;20104;-68
2023/07/21 05:06:45;;;;;;;5.80;4.10;;;;;;;17.16;100.00;95535.19;5015590;28;20021;-68
2023/07/21 05:09:10;;;;;;;8.02;4.35;;;;;;;17.20;100.00;95552.44;5020609;28;20548;-67
2023/07/21 05:11:36;;;;;;;14.15;6.32;;;;;;;17.20;100.00;95572.91;5022745;28;20030;-67
2023/07/21 05:14:03;;;;;;;8.45;4.15;;;;;;;17.21;100.00;95579.88;5022997;28;20089;-68
2023/07/21 05:16:29;;;;;;;7.55;4.30;;;;;;;17.15;100.00;95557.50;5019709;28;20025;-68
2023/07/21 05:18:54;;;;;;;9.77;4.72;;;;;;;17.02;100.00;95552.84;5020873;28;20025;-68
2023/07/21 05:21:20;;;;;;;5.50;4.20;;;;;;;16.93;100.00;95504.22;5020773;28;20517;-68
2023/07/21 05:23:45;;;;;;;8.50;4.50;;;;;;;16.94;100.00;95450.03;5020771;28;20041;-68
2023/07/21 05:26:11;;;;;;;9.18;4.45;;;;;;;16.78;100.00;95443.13;5021704;28;20049;-68
2023/07/21 05:28:36;;;;;;;4.75;4.30;;;;;;;16.68;100.00;95416.84;5018611;28;20021;-68
2023/07/21 05:31:03;;;;;;;3.78;3.33;;;;;;;16.69;100.00;95353.84;5019686;28;20032;-68
2023/07/21 05:33:29;;;;;;;5.45;4.97;;;;;;;16.71;100.00;95280.91;5017872;28;20026;-68
2023/07/21 05:36:09;;;;;;;4.20;3.80;;;;;;;16.70;100.00;95190.75;5016204;28;20081;-68
2023/07/21 05:38:35;;;;;;;8.50;4.35;;;;;;;16.70;100.00;95063.97;5016214;28;20136;-68
2023/07/21 05:41:01;;;;;;;9.57;6.72;;;;;;;16.78;100.00;94930.09;5021300;28;20049;-68
2023/07/21 05:43:27;;;;;;;18.75;10.48;;;;;;;16.74;100.00;94827.88;5019137;28;20078;-68
2023/07/21 05:45:53;;;;;;;6.03;5.22;;;;;;;16.75;100.00;94758.56;5019609;28;20026;-68
2023/07/21 05:48:19;;;;;;;9.75;6.38;;;;;;;16.74;100.00;94663.13;5021008;28;20062;-68
2023/07/21 05:50:44;;;;;;;8.02;5.38;;;;;;;16.69;100.00;94583.16;5021080;28;20025;-68
2023/07/21 05:53:10;;;;;;;5.00;4.60;;;;;;;16.76;100.00;94483.81;5018654;28;20030;-68
2023/07/21 05:55:35;;;;;;;8.65;4.80;;;;;;;16.90;100.00;94382.75;5021610;28;20029;-68
2023/07/21 05:58:00;;;;;;;8.27;4.70;;;;;;;17.00;100.00;94270.69;5015890;28;20018;-68
2023/07/21 06:00:26;;;;;;;4.20;3.80;;;;;;;17.08;100.00;94126.03;5015782;28;20028;-68
2023/07/21 06:02:52;;;;;;;5.20;4.72;;;;;;;17.15;100.00;93994.66;5024220;28;20032;-67
2023/07/21 06:05:18;;;;;;;5.13;4.20;;;;;;;17.26;100.00;93875.25;5018555;28;20068;-67
2023/07/21 06:07:45;;;;;;;6.63;4.28;;;;;;;17.47;100.00;93709.00;5015630;28;20057;-68
2023/07/21 06:10:11;;;;;;;5.10;4.60;;;;;;;17.60;100.00;93598.84;5020606;28;20057;-66
2023/07/21 06:12:37;;;;;;;5.53;4.18;;;;;;;17.67;100.00;93596.00;5023610;28;20072;-66
2023/07/21 06:15:05;;;;;;;5.78;4.75;;;;;;;17.75;100.00;93636.38;5020654;28;20196;-67
2023/07/21 06:17:30;;;;;;;4.65;4.22;;;;;;;17.81;100.00;93623.97;5026843;28;20029;-66
2023/07/21 06:19:56;;;;;;;5.05;4.10;;;;;;;17.93;100.00;93642.56;5022105;28;20033;-66
2023/07/21 06:22:22;;;;;;;4.72;4.30;;;;;;;18.06;100.00;93636.16;5021853;28;20025;-67
2023/07/21 06:24:47;;;;;;;3.88;3.55;;;;;;;18.14;100.00;93629.63;5024191;28;20021;-67
2023/07/21 06:27:13;;;;;;;3.72;3.42;;;;;;;18.10;100.00;93655.13;5044823;28;20443;-65
2023/07/21 06:29:38;;;;;;;3.78;3.45;;;;;;;18.12;100.00;93631.72;5019618;28;20034;-68
2023/07/21 06:32:04;;;;;;;4.85;4.30;;;;;;;18.36;100.00;93594.31;5022425;28;20064;-68
2023/07/21 06:34:29;;;;;;;3.95;3.65;;;;;;;18.40;100.00;93574.13;5020079;28;20363;-68
2023/07/21 06:36:55;;;;;;;4.93;3.97;;;;;;;18.37;100.00;93543.47;5021511;28;20461;-68
2023/07/21 06:39:22;;;;;;;5.78;3.58;;;;;;;18.33;100.00;93575.09;5018672;28;20029;-67
2023/07/21 06:41:48;;;;;;;5.00;3.78;;;;;;;18.25;100.00;93578.19;5023152;28;20025;-68
2023/07/21 06:44:14;;;;;;;4.40;4.00;;;;;;;18.36;100.00;93563.16;5022248;28;20054;-69
2023/07/21 06:46:44;;;;;;;4.78;4.10;;;;;;;18.50;100.00;93525.53;5022795;28;20113;-68
2023/07/21 06:49:10;;;;;;;5.45;4.10;;;;;;;18.68;100.00;93521.78;5017923;28;20080;-68
2023/07/21 06:51:35;;;;;;;5.88;4.00;;;;;;;18.89;100.00;93595.63;5020269;28;20021;-72
2023/07/21 06:54:03;;;;;;;4.90;3.80;;;;;;;19.05;100.00;93649.22;5023277;28;20377;-69
2023/07/21 06:56:29;;;;;;;4.20;3.83;;;;;;;19.10;100.00;93702.63;5020791;28;20524;-70
2023/07/21 06:58:55;;;;;;;4.35;4.05;;;;;;;19.11;100.00;93736.22;5017485;28;20039;-68
2023/07/21 07:01:21;;;;;;;4.13;3.78;;;;;;;19.15;100.00;93776.56;5021579;28;20636;-69
2023/07/21 07:03:46;;;;;;;3.83;3.53;;;;;;;19.23;100.00;93818.84;5021742;28;20056;-68
2023/07/21 07:06:11;;;;;;;4.10;3.70;;;;;;;19.36;100.00;93852.41;5019481;28;20026;-68
2023/07/21 07:08:37;;;;;;;3.42;3.22;;;;;;;19.37;100.00;93886.03;5016474;28;20036;-68
2023/07/21 07:11:02;;;;;;;3.83;3.53;;;;;;;19.47;100.00;93890.75;5021569;28;20034;-68
2023/07/21 07:13:28;;;;;;;3.90;3.50;;;;;;;19.44;100.00;93909.88;5023520;28;20406;-69
2023/07/21 07:15:54;;;;;;;3.63;3.28;;;;;;;19.40;100.00;93920.25;5044422;28;20037;-69
2023/07/21 07:18:20;;;;;;;3.97;3.67;;;;;;;19.41;100.00;93921.84;5019968;28;20032;-69
2023/07/21 07:20:52;;;;;;;3.90;3.50;;;;;;;19.36;100.00;93927.09;5016194;28;20033;-69
2023/07/21 07:23:19;;;;;;;3.65;3.35;;;;;;;19.55;100.00;93929.53;5020613;28;20030;-69
2023/07/21 07:25:49;;;;;;;4.63;3.13;;;;;;;19.72;100.00;93938.38;5019903;28;20104;-68
2023/07/21 07:28:16;;;;;;;4.90;3.00;;;;;;;19.92;100.00;93923.75;5017019;28;20108;-68
2023/07/21 07:30:41;;;;;;;5.78;5.10;;;;;;;19.96;100.00;93930.22;5018114;28;20525;-69
2023/07/21 07:33:07;;;;;;;5.60;5.00;;;;;;;20.20;100.00;93956.75;5021253;28;20069;-69
2023/07/21 07:35:32;;;;;;;4.72;3.63;;;;;;;20.58;100.00;94000.59;5023381;28;20037;-70
2023/07/21 07:37:59;;;;;;;3.00;2.78;;;;;;;21.18;100.00;94099.84;5019009;28;20426;-69
2023/07/21 07:40:24;;;;;;;3.50;3.20;;;;;;;21.60;100.00;94216.28;5020332;28;20033;-69
2023/07/21 07:42:50;;;;;;;4.15;3.83;;;;;;;21.64;100.00;94349.66;5016225;28;20029;-68
2023/07/21 07:45:15;;;;;;;6.25;5.65;;;;;;;21.38;100.00;94406.31;5016109;28;20064;-69
2023/07/21 07:47:43;;;;;;;4.72;4.32;;;;;;;21.01;100.00;94478.94;5016735;28;20033;-69
2023/07/21 07:50:10;;;;;;;3.92;3.15;;;;;;;21.08;100.00;94492.97;5017957;28;20040;-69
2023/07/21 07:52:36;;;;;;;4.00;3.60;;;;;;;21.09;100.00;94521.34;5019510;28;20040;-70
2023/07/21 07:55:02;;;;;;;5.10;4.07;;;;;;;21.72;100.00;94508.13;5017482;28;20040;-69
2023/07/21 07:57:28;;;;;;;4.15;3.40;;;;;;;22.61;100.00;94594.28;5019922;28;20146;-69
2023/07/21 07:59:54;;;;;;;4.85;3.33;;;;;;;22.78;100.00;94730.28;5018910;28;20450;-69
2023/07/21 08:02:19;;;;;;;4.43;3.40;;;;;;;22.57;100.00;94794.28;5013881;28;20025;-69
2023/07/21 08:04:45;;;;;;;3.83;3.22;;;;;;;22.66;100.00;94804.63;5016847;28;20037;-69
2023/07/21 08:07:10;;;;;;;3.10;2.80;;;;;;;23.27;100.00;94812.97;5014770;28;20029;-70
2023/07/21 08:09:36;;;;;;;3.58;3.17;;;;;;;23.80;100.00;94854.88;5015417;28;20030;-70
2023/07/21 08:12:01;;;;;;;4.40;3.25;;;;;;;23.92;100.00;94871.72;5017038;28;20119;-70
2023/07/21 08:14:27;;;;;;;4.13;3.03;;;;;;;24.56;100.00;94961.91;5014264;28;20049;-70
2023/07/21 08:16:52;;;;;;;4.35;2.83;;;;;;;25.23;100.00;95052.69;5019386;28;20410;-69
2023/07/21 08:19:19;;;;;;;3.60;2.90;;;;;;;25.00;100.00;95082.31;5014873;28;20594;-70
2023/07/21 08:21:47;;;;;;;3.72;2.70;;;;;;;24.47;100.00;95052.19;5018025;28;20025;-70
2023/07/21 08:24:13;;;;;;;3.22;2.92;;;;;;;24.37;100.00;95031.31;5018169;28;20022;-70
2023/07/21 08:26:38;;;;;;;2.78;2.58;;;;;;;24.04;100.00;95032.94;5019079;28;20469;-70
2023/07/21 08:29:07;;;;;;;3.20;2.90;;;;;;;23.75;100.00;95033.75;5020726;28;20455;-70
2023/07/21 08:31:32;;;;;;;5.38;2.83;;;;;;;23.91;100.00;95030.53;5020918;28;20095;-70
2023/07/21 08:33:57;;;;;;;3.33;3.05;;;;;;;24.19;100.00;95053.88;5017420;28;20029;-70
2023/07/21 08:36:23;;;;;;;3.58;2.90;;;;;;;24.23;100.00;95065.81;5021115;28;20038;-70
2023/07/21 08:38:50;;;;;;;3.15;2.80;;;;;;;24.60;100.00;95086.81;5025009;28;20030;-70
2023/07/21 08:41:18;;;;;;;2.97;2.78;;;;;;;25.29;100.00;95100.16;5015510;28;20033;-69
2023/07/21 08:43:46;;;;;;;3.20;2.92;;;;;;;25.28;100.00;95129.00;5018161;28;20022;-70
2023/07/21 08:46:11;;;;;;;3.42;3.15;;;;;;;25.25;100.00;95129.50;5018780;28;20057;-70
2023/07/21 08:48:39;;;;;;;7.55;3.40;;;;;;;25.63;100.00;95124.34;5018366;28;20068;-70
2023/07/21 08:51:05;;;;;;;3.83;3.50;;;;;;;25.51;100.00;95142.50;5014729;28;20037;-71
2023/07/21 08:53:31;;;;;;;5.40;3.95;;;;;;;25.71;100.00;95137.38;5022151;28;20112;-71
2023/07/21 08:55:59;;;;;;;4.45;3.45;;;;;;;25.35;100.00;95154.94;5017412;28;20053;-70
2023/07/21 08:58:25;;;;;;;5.18;3.50;;;;;;;25.51;100.00;95150.59;5017051;28;20087;-71
2023/07/21 09:00:54;;;;;;;3.35;3.15;;;;;;;25.50;100.00;95157.88;5017263;28;20026;-70
2023/07/21 09:03:30;;;;;;;4.03;3.50;;;;;;;25.93;100.00;95154.59;5018911;28;20034;-71
2023/07/21 09:05:57;;;;;;;3.95;3.47;;;;;;;26.55;100.00;95176.84;5015891;28;20025;-71
2023/07/21 09:08:28;;;;;;;5.40;3.42;;;;;;;26.63;100.00;95213.31;5018611;28;20420;-72
2023/07/21 09:10:59;;;;;;;3.65;2.92;;;;;;;26.39;100.00;95216.34;5018037;28;20026;-71
2023/07/21 09:13:26;;;;;;;3.88;3.58;;;;;;;26.25;100.00;95213.22;5016998;28;20033;-72
2023/07/21 09:15:54;;;;;;;4.97;3.17;;;;;;;26.39;100.00;95237.91;5019267;28;20030;-71
2023/07/21 09:18:32;;;;;;;3.65;3.35;;;;;;;26.59;100.00;95264.31;5020992;28;20077;-71
2023/07/21 09:20:57;;;;;;;3.50;3.20;;;;;;;26.74;100.00;95274.44;5016205;28;20092;-71
2023/07/21 09:23:23;;;;;;;3.67;3.35;;;;;;;26.36;100.00;95289.69;5019245;28;20108;-71
2023/07/21 09:25:54;;;;;;;3.90;3.42;;;;;;;26.34;100.00;95311.53;5016379;28;20041;-72
2023/07/21 09:28:21;;;;;;;6.80;3.15;;;;;;;26.77;100.00;95308.25;5018373;28;20033;-71
2023/07/21 09:30:51;;;;;;;6.53;3.58;;;;;;;27.44;100.00;95349.41;5014627;28;20037;-71
2023/07/21 09:33:24;;;;;;;4.07;3.45;;;;;;;27.48;100.00;95384.81;5014288;28;20026;-71
2023/07/21 09:36:03;;;;;;;3.42;3.10;;;;;;;27.16;100.00;95392.66;5020117;28;20036;-72
2023/07/21 09:38:28;;;;;;;3.42;3.13;;;;;;;27.14;100.00;95378.59;5017339;28;20033;-72
2023/07/21 09:41:21;;;;;;;3.03;2.83;;;;;;;27.12;100.00;95372.63;5017398;28;20037;-72
2023/07/21 09:43:48;;;;;;;3.00;2.80;;;;;;;27.90;100.00;95394.91;5018850;28;20108;-72
2023/07/21 09:46:13;;;;;;;4.13;3.13;;;;;;;27.62;100.00;95386.06;5018451;28;20064;-72
2023/07/21 09:48:39;;;;;;;2.67;2.42;;;;;;;27.74;100.00;95383.19;5016603;28;20061;-72
2023/07/21 09:51:07;;;;;;;4.22;2.85;;;;;;;28.22;100.00;95402.19;5021502;28;20017;-72
2023/07/21 09:53:40;;;;;;;4.07;2.95;;;;;;;28.09;100.00;95413.44;5017808;28;20026;-72
2023/07/21 09:56:11;;;;;;;3.30;3.00;;;;;;;27.84;100.00;95412.19;5016555;28;20025;-72
2023/07/21 09:58:45;;;;;;;4.20;3.80;;;;;;;27.56;100.00;95397.91;5017438;28;20546;-72
2023/07/21 10:01:12;;;;;;;4.25;3.42;;;;;;;27.30;100.00;95394.91;5017109;28;20065;-72
2023/07/21 10:03:38;;;;;;;5.57;3.10;;;;;;;27.90;100.00;95404.94;5018307;28;20151;-73
2023/07/21 10:06:04;;;;;;;3.13;2.92;;;;;;;27.90;100.00;95423.88;5014098;28;20464;-72
2023/07/21 10:08:33;;;;;;;4.95;2.67;;;;;;;28.34;100.00;95444.47;5016433;28;20038;-72
2023/07/21 10:10:59;;;;;;;3.83;3.00;;;;;;;28.97;100.00;95459.97;5013583;28;20033;-72
2023/07/21 10:13:26;;;;;;;4.60;2.47;;;;;;;29.58;100.00;95456.63;5018704;28;20038;-72
2023/07/21 10:15:53;;;;;;;2.75;2.50;;;;;;;29.41;100.00;95475.06;5012617;28;20021;-72
2023/07/21 10:18:18;;;;;;;3.13;2.30;;;;;;;29.61;100.00;95492.44;5009267;28;20069;-72
2023/07/21 10:20:55;;;;;;;2.72;2.50;;;;;;;29.93;100.00;95503.06;5015125;28;20537;-72
2023/07/21 10:23:24;;;;;;;2.65;2.30;;;;;;;29.79;100.00;95508.19;5020899;28;20017;-70
2023/07/21 10:26:03;;;;;;;3.30;2.30;;;;;;;29.76;100.00;95519.59;5012977;28;20255;-71
2023/07/21 10:28:35;;;;;;;2.42;2.25;;;;;;;30.17;100.00;95507.97;5018038;28;20018;-72
2023/07/21 10:34:13;;;;;;;2.17;1.90;;;;;;;30.23;100.00;95512.34;5018343;28;20031;-72
2023/07/21 10:36:51;;;;;;;5.88;2.33;;;;;;;30.25;100.00;95514.75;5012672;28;20073;-74
2023/07/21 10:39:19;;;;;;;2.25;2.05;;;;;;;30.24;100.00;95518.56;5013881;28;20137;-73
2023/07/21 10:41:45;;;;;;;3.28;2.38;;;;;;;30.25;100.00;95514.75;5043925;28;20026;-72
2023/07/21 10:44:11;;;;;;;2.63;2.33;;;;;;;30.27;100.00;95518.00;5015074;28;20449;-72
2023/07/21 10:46:44;;;;;;;2.97;2.20;;;;;;;30.37;100.00;95514.47;5016401;28;20486;-72
2023/07/21 10:49:11;;;;;;;2.72;2.53;;;;;;;30.33;100.00;95510.69;5018331;28;20497;-71
2023/07/21 10:51:44;;;;;;;2.42;2.15;;;;;;;30.29;100.00;95513.16;5016859;28;20036;-72
2023/07/21 10:54:11;;;;;;;1.80;1.67;;;;;;;30.10;100.00;95516.41;5017415;28;20125;-72
2023/07/21 10:56:42;;;;;;;1.90;1.80;;;;;;;30.11;100.00;95515.31;5017951;28;20026;-71
2023/07/21 10:59:08;;;;;;;2.78;1.90;;;;;;;30.64;100.00;95511.50;5018685;28;20029;-71
2023/07/21 11:01:41;;;;;;;1.63;1.52;;;;;;;30.61;100.00;95511.19;5021241;28;20025;-71
2023/07/21 11:04:07;;;;;;;3.08;1.67;;;;;;;29.93;100.00;95513.91;5021017;28;20080;-71
2023/07/21 11:06:39;;;;;;;1.90;1.80;;;;;;;29.42;100.00;95510.03;5022107;28;20022;-70
2023/07/21 11:09:04;;;;;;;1.77;1.67;;;;;;;29.49;100.00;95507.06;5017799;28;20025;-71
2023/07/21 11:11:30;;;;;;;2.17;1.98;;;;;;;30.10;100.00;95512.88;5022384;28;20129;-72
2023/07/21 11:13:55;;;;;;;4.65;1.60;;;;;;;30.24;100.00;95494.13;5020558;28;20026;-71
2023/07/21 11:16:21;;;;;;;2.20;1.88;;;;;;;30.05;100.00;95496.59;5019142;28;20065;-71
2023/07/21 11:18:46;;;;;;;1.65;1.55;;;;;;;30.29;100.00;95494.94;5019933;28;20028;-71
2023/07/21 11:21:12;;;;;;;2.72;1.90;;;;;;;30.89;100.00;95501.63;5023452;28;20063;-72
2023/07/21 11:23:37;;;;;;;1.95;1.80;;;;;;;31.01;100.00;95498.59;5021720;28;20021;-73
2023/07/21 11:26:06;;;;;;;2.47;1.85;;;;;;;31.19;100.00;95505.34;5019818;28;20045;-74